sensor_id;sensor_type;location;lat;lon;timestamp;temperature;humidity
30304;DHT22;17112;48.636;10.152;2022-09-02T00:01:45;15.60;61.60
30304;DHT22;17112;48.636;10.152;2022-09-02T00:04:20;15.60;62.40
30304;DHT22;17112;48.636;10.152;2022-09-02T00:06:48;15.50;62.40
30304;DHT22;17112;48.636;10.152;2022-09-02T00:09:16;15.50;61.60
30304;DHT22;17112;48.636;10.152;2022-09-02T00:11:44;15.40;61.70
30304;DHT22;17112;48.636;10.152;2022-09-02T00:14:14;15.40;61.80
30304;DHT22;17112;48.636;10.152;2022-09-02T00:16:41;15.40;62.10
30304;DHT22;17112;48.636;10.152;2022-09-02T00:19:09;15.40;62.00
30304;DHT22;17112;48.636;10.152;2022-09-02T00:21:35;15.30;62.00
30304;DHT22;17112;48.636;10.152;2022-09-02T00:24:03;15.30;62.00
30304;DHT22;17112;48.636;10.152;2022-09-02T00:26:29;15.30;62.30
30304;DHT22;17112;48.636;10.152;2022-09-02T00:28:55;15.30;62.20
30304;DHT22;17112;48.636;10.152;2022-09-02T00:31:22;15.20;62.30
30304;DHT22;17112;48.636;10.152;2022-09-02T00:33:47;15.20;62.30
30304;DHT22;17112;48.636;10.152;2022-09-02T00:36:15;15.20;62.40
30304;DHT22;17112;48.636;10.152;2022-09-02T00:38:40;15.10;62.40
30304;DHT22;17112;48.636;10.152;2022-09-02T00:41:09;15.10;62.40
30304;DHT22;17112;48.636;10.152;2022-09-02T00:43:51;15.10;63.40
30304;DHT22;17112;48.636;10.152;2022-09-02T00:46:19;15.10;63.30
30304;DHT22;17112;48.636;10.152;2022-09-02T00:48:51;15.00;62.60
30304;DHT22;17112;48.636;10.152;2022-09-02T00:51:18;15.00;62.80
30304;DHT22;17112;48.636;10.152;2022-09-02T00:53:47;14.90;62.60
30304;DHT22;17112;48.636;10.152;2022-09-02T00:56:24;14.90;62.80
30304;DHT22;17112;48.636;10.152;2022-09-02T00:58:51;14.90;63.00
30304;DHT22;17112;48.636;10.152;2022-09-02T01:01:17;14.90;62.80
30304;DHT22;17112;48.636;10.152;2022-09-02T01:03:43;14.90;62.70
30304;DHT22;17112;48.636;10.152;2022-09-02T01:06:10;14.80;62.70
30304;DHT22;17112;48.636;10.152;2022-09-02T01:08:43;14.80;62.90
30304;DHT22;17112;48.636;10.152;2022-09-02T01:11:10;14.80;63.00
30304;DHT22;17112;48.636;10.152;2022-09-02T01:13:40;14.70;62.80
30304;DHT22;17112;48.636;10.152;2022-09-02T01:16:24;14.70;62.80
30304;DHT22;17112;48.636;10.152;2022-09-02T01:18:54;14.70;63.30
30304;DHT22;17112;48.636;10.152;2022-09-02T01:21:22;14.70;62.80
30304;DHT22;17112;48.636;10.152;2022-09-02T01:23:49;14.60;62.80
30304;DHT22;17112;48.636;10.152;2022-09-02T01:26:15;14.60;63.00
30304;DHT22;17112;48.636;10.152;2022-09-02T01:28:40;14.60;63.00
30304;DHT22;17112;48.636;10.152;2022-09-02T01:31:06;14.60;63.20
30304;DHT22;17112;48.636;10.152;2022-09-02T01:33:32;14.50;63.20
30304;DHT22;17112;48.636;10.152;2022-09-02T01:35:58;14.50;63.20
30304;DHT22;17112;48.636;10.152;2022-09-02T01:38:25;14.50;63.30
30304;DHT22;17112;48.636;10.152;2022-09-02T01:40:51;14.40;63.40
30304;DHT22;17112;48.636;10.152;2022-09-02T01:43:21;14.40;63.40
30304;DHT22;17112;48.636;10.152;2022-09-02T01:45:50;14.40;63.50
30304;DHT22;17112;48.636;10.152;2022-09-02T01:48:17;14.40;63.60
30304;DHT22;17112;48.636;10.152;2022-09-02T01:50:46;14.40;63.30
30304;DHT22;17112;48.636;10.152;2022-09-02T01:53:13;14.30;63.40
30304;DHT22;17112;48.636;10.152;2022-09-02T01:55:39;14.30;63.40
30304;DHT22;17112;48.636;10.152;2022-09-02T01:58:05;14.30;63.40
30304;DHT22;17112;48.636;10.152;2022-09-02T02:00:30;14.20;63.50
30304;DHT22;17112;48.636;10.152;2022-09-02T02:02:56;14.20;63.50
30304;DHT22;17112;48.636;10.152;2022-09-02T02:05:22;14.20;63.60
30304;DHT22;17112;48.636;10.152;2022-09-02T02:07:48;14.10;63.70
30304;DHT22;17112;48.636;10.152;2022-09-02T02:10:16;14.10;63.60
30304;DHT22;17112;48.636;10.152;2022-09-02T02:12:42;14.10;63.70
30304;DHT22;17112;48.636;10.152;2022-09-02T02:15:12;14.10;63.60
30304;DHT22;17112;48.636;10.152;2022-09-02T02:17:38;14.10;63.70
30304;DHT22;17112;48.636;10.152;2022-09-02T02:20:05;14.00;63.60
30304;DHT22;17112;48.636;10.152;2022-09-02T02:22:31;14.00;63.60
30304;DHT22;17112;48.636;10.152;2022-09-02T02:24:57;13.90;63.50
30304;DHT22;17112;48.636;10.152;2022-09-02T02:27:22;13.90;63.60
30304;DHT22;17112;48.636;10.152;2022-09-02T02:29:48;13.90;63.60
30304;DHT22;17112;48.636;10.152;2022-09-02T02:32:14;13.80;63.60
30304;DHT22;17112;48.636;10.152;2022-09-02T02:34:43;13.80;63.60
30304;DHT22;17112;48.636;10.152;2022-09-02T02:37:08;13.80;63.60
30304;DHT22;17112;48.636;10.152;2022-09-02T02:39:37;13.80;63.70
30304;DHT22;17112;48.636;10.152;2022-09-02T02:42:03;13.70;63.80
30304;DHT22;17112;48.636;10.152;2022-09-02T02:44:29;13.70;63.90
30304;DHT22;17112;48.636;10.152;2022-09-02T02:46:55;13.70;64.10
30304;DHT22;17112;48.636;10.152;2022-09-02T02:49:21;13.60;64.20
30304;DHT22;17112;48.636;10.152;2022-09-02T02:51:47;13.60;64.30
30304;DHT22;17112;48.636;10.152;2022-09-02T02:54:13;13.60;64.40
30304;DHT22;17112;48.636;10.152;2022-09-02T02:56:40;13.60;64.40
30304;DHT22;17112;48.636;10.152;2022-09-02T02:59:05;13.60;64.40
30304;DHT22;17112;48.636;10.152;2022-09-02T03:01:32;13.60;64.40
30304;DHT22;17112;48.636;10.152;2022-09-02T03:03:58;13.60;64.40
30304;DHT22;17112;48.636;10.152;2022-09-02T03:06:24;13.60;64.30
30304;DHT22;17112;48.636;10.152;2022-09-02T03:08:50;13.50;64.20
30304;DHT22;17112;48.636;10.152;2022-09-02T03:11:18;13.50;64.20
30304;DHT22;17112;48.636;10.152;2022-09-02T03:13:48;13.50;64.50
30304;DHT22;17112;48.636;10.152;2022-09-02T03:16:13;13.50;64.50
30304;DHT22;17112;48.636;10.152;2022-09-02T03:18:39;13.50;64.50
30304;DHT22;17112;48.636;10.152;2022-09-02T03:21:08;13.50;64.50
30304;DHT22;17112;48.636;10.152;2022-09-02T03:23:35;13.40;64.80
30304;DHT22;17112;48.636;10.152;2022-09-02T03:26:01;13.40;64.80
30304;DHT22;17112;48.636;10.152;2022-09-02T03:28:27;13.40;64.80
30304;DHT22;17112;48.636;10.152;2022-09-02T03:30:55;13.40;64.70
30304;DHT22;17112;48.636;10.152;2022-09-02T03:33:20;13.40;64.60
30304;DHT22;17112;48.636;10.152;2022-09-02T03:35:46;13.40;64.60
30304;DHT22;17112;48.636;10.152;2022-09-02T03:38:12;13.40;64.70
30304;DHT22;17112;48.636;10.152;2022-09-02T03:40:38;13.30;64.70
30304;DHT22;17112;48.636;10.152;2022-09-02T03:43:04;13.30;64.60
30304;DHT22;17112;48.636;10.152;2022-09-02T03:45:31;13.30;64.50
30304;DHT22;17112;48.636;10.152;2022-09-02T03:47:57;13.30;64.60
30304;DHT22;17112;48.636;10.152;2022-09-02T03:50:29;13.30;64.60
30304;DHT22;17112;48.636;10.152;2022-09-02T03:52:56;13.20;64.90
30304;DHT22;17112;48.636;10.152;2022-09-02T03:55:22;13.20;64.60
30304;DHT22;17112;48.636;10.152;2022-09-02T03:57:49;13.20;64.60
30304;DHT22;17112;48.636;10.152;2022-09-02T04:00:16;13.20;64.70
30304;DHT22;17112;48.636;10.152;2022-09-02T04:02:43;13.20;64.80
30304;DHT22;17112;48.636;10.152;2022-09-02T04:05:09;13.20;64.80
30304;DHT22;17112;48.636;10.152;2022-09-02T04:07:37;13.20;64.90
30304;DHT22;17112;48.636;10.152;2022-09-02T04:10:04;13.20;64.90
30304;DHT22;17112;48.636;10.152;2022-09-02T04:12:30;13.10;65.00
30304;DHT22;17112;48.636;10.152;2022-09-02T04:14:56;13.10;65.00
30304;DHT22;17112;48.636;10.152;2022-09-02T04:17:23;13.10;65.10
30304;DHT22;17112;48.636;10.152;2022-09-02T04:19:48;13.10;65.00
30304;DHT22;17112;48.636;10.152;2022-09-02T04:22:14;13.10;64.90
30304;DHT22;17112;48.636;10.152;2022-09-02T04:24:40;13.10;64.90
30304;DHT22;17112;48.636;10.152;2022-09-02T04:27:06;13.10;64.90
30304;DHT22;17112;48.636;10.152;2022-09-02T04:29:32;13.10;64.90
30304;DHT22;17112;48.636;10.152;2022-09-02T04:31:58;13.10;64.90
30304;DHT22;17112;48.636;10.152;2022-09-02T04:34:23;13.00;64.70
30304;DHT22;17112;48.636;10.152;2022-09-02T04:36:49;13.00;64.60
30304;DHT22;17112;48.636;10.152;2022-09-02T04:39:15;13.00;64.70
30304;DHT22;17112;48.636;10.152;2022-09-02T04:41:40;13.00;64.70
30304;DHT22;17112;48.636;10.152;2022-09-02T04:44:06;13.00;64.70
30304;DHT22;17112;48.636;10.152;2022-09-02T04:46:32;13.00;64.80
30304;DHT22;17112;48.636;10.152;2022-09-02T04:48:58;13.00;64.80
30304;DHT22;17112;48.636;10.152;2022-09-02T04:51:25;12.90;64.90
30304;DHT22;17112;48.636;10.152;2022-09-02T04:53:52;12.90;64.90
30304;DHT22;17112;48.636;10.152;2022-09-02T04:56:24;12.90;64.90
30304;DHT22;17112;48.636;10.152;2022-09-02T04:58:51;12.90;65.00
30304;DHT22;17112;48.636;10.152;2022-09-02T05:01:19;12.90;65.10
30304;DHT22;17112;48.636;10.152;2022-09-02T05:03:46;12.90;65.10
30304;DHT22;17112;48.636;10.152;2022-09-02T05:06:15;12.90;65.20
30304;DHT22;17112;48.636;10.152;2022-09-02T05:08:41;12.90;65.30
30304;DHT22;17112;48.636;10.152;2022-09-02T05:11:09;12.90;65.40
30304;DHT22;17112;48.636;10.152;2022-09-02T05:13:34;12.90;65.60
30304;DHT22;17112;48.636;10.152;2022-09-02T05:16:01;12.90;65.60
30304;DHT22;17112;48.636;10.152;2022-09-02T05:18:27;12.90;66.50
30304;DHT22;17112;48.636;10.152;2022-09-02T05:20:53;12.90;65.90
30304;DHT22;17112;48.636;10.152;2022-09-02T05:23:18;13.00;65.90
30304;DHT22;17112;48.636;10.152;2022-09-02T05:25:44;13.00;66.00
30304;DHT22;17112;48.636;10.152;2022-09-02T05:28:10;13.10;66.10
30304;DHT22;17112;48.636;10.152;2022-09-02T05:30:37;13.10;66.10
30304;DHT22;17112;48.636;10.152;2022-09-02T05:33:04;13.20;66.20
30304;DHT22;17112;48.636;10.152;2022-09-02T05:35:30;13.20;66.30
30304;DHT22;17112;48.636;10.152;2022-09-02T05:37:56;13.30;66.40
30304;DHT22;17112;48.636;10.152;2022-09-02T05:40:22;13.40;66.60
30304;DHT22;17112;48.636;10.152;2022-09-02T05:42:48;13.40;66.60
30304;DHT22;17112;48.636;10.152;2022-09-02T05:45:14;13.50;66.60
30304;DHT22;17112;48.636;10.152;2022-09-02T05:47:39;13.60;66.50
30304;DHT22;17112;48.636;10.152;2022-09-02T05:50:06;13.70;66.50
30304;DHT22;17112;48.636;10.152;2022-09-02T05:52:32;13.80;66.60
30304;DHT22;17112;48.636;10.152;2022-09-02T05:54:58;13.90;66.50
30304;DHT22;17112;48.636;10.152;2022-09-02T05:57:25;14.00;66.50
30304;DHT22;17112;48.636;10.152;2022-09-02T05:59:51;14.20;66.70
30304;DHT22;17112;48.636;10.152;2022-09-02T06:02:22;14.30;67.50
30304;DHT22;17112;48.636;10.152;2022-09-02T06:04:49;14.40;67.00
30304;DHT22;17112;48.636;10.152;2022-09-02T06:07:17;14.50;66.80
30304;DHT22;17112;48.636;10.152;2022-09-02T06:09:43;14.70;66.80
30304;DHT22;17112;48.636;10.152;2022-09-02T06:12:10;14.80;66.70
30304;DHT22;17112;48.636;10.152;2022-09-02T06:14:36;14.90;66.50
30304;DHT22;17112;48.636;10.152;2022-09-02T06:17:04;15.10;66.60
30304;DHT22;17112;48.636;10.152;2022-09-02T06:19:30;15.20;66.50
30304;DHT22;17112;48.636;10.152;2022-09-02T06:21:58;15.30;66.30
30304;DHT22;17112;48.636;10.152;2022-09-02T06:24:25;15.50;66.20
30304;DHT22;17112;48.636;10.152;2022-09-02T06:26:51;15.60;66.10
30304;DHT22;17112;48.636;10.152;2022-09-02T06:29:19;15.80;65.90
30304;DHT22;17112;48.636;10.152;2022-09-02T06:31:46;15.90;65.50
30304;DHT22;17112;48.636;10.152;2022-09-02T06:34:13;16.10;65.20
30304;DHT22;17112;48.636;10.152;2022-09-02T06:36:42;16.30;64.90
30304;DHT22;17112;48.636;10.152;2022-09-02T06:39:12;16.40;64.60
30304;DHT22;17112;48.636;10.152;2022-09-02T06:41:39;16.60;64.50
30304;DHT22;17112;48.636;10.152;2022-09-02T06:44:06;16.70;64.10
30304;DHT22;17112;48.636;10.152;2022-09-02T06:46:38;16.80;63.80
30304;DHT22;17112;48.636;10.152;2022-09-02T06:49:06;17.00;63.40
30304;DHT22;17112;48.636;10.152;2022-09-02T06:51:35;17.10;64.10
30304;DHT22;17112;48.636;10.152;2022-09-02T06:54:02;17.20;63.20
30304;DHT22;17112;48.636;10.152;2022-09-02T06:56:28;17.40;63.00
30304;DHT22;17112;48.636;10.152;2022-09-02T06:58:54;17.50;62.80
30304;DHT22;17112;48.636;10.152;2022-09-02T07:01:22;17.60;62.30
30304;DHT22;17112;48.636;10.152;2022-09-02T07:03:49;17.70;62.30
30304;DHT22;17112;48.636;10.152;2022-09-02T07:06:40;17.90;62.40
30304;DHT22;17112;48.636;10.152;2022-09-02T07:09:08;18.00;61.80
30304;DHT22;17112;48.636;10.152;2022-09-02T07:11:35;18.10;61.70
30304;DHT22;17112;48.636;10.152;2022-09-02T07:14:01;18.20;61.50
30304;DHT22;17112;48.636;10.152;2022-09-02T07:16:33;18.30;61.40
30304;DHT22;17112;48.636;10.152;2022-09-02T07:18:59;18.40;61.30
30304;DHT22;17112;48.636;10.152;2022-09-02T07:21:26;18.60;61.10
30304;DHT22;17112;48.636;10.152;2022-09-02T07:23:53;18.70;60.90
30304;DHT22;17112;48.636;10.152;2022-09-02T07:26:21;18.80;60.60
30304;DHT22;17112;48.636;10.152;2022-09-02T07:28:47;18.90;60.10
30304;DHT22;17112;48.636;10.152;2022-09-02T07:31:14;19.00;60.20
30304;DHT22;17112;48.636;10.152;2022-09-02T07:33:40;19.10;59.90
30304;DHT22;17112;48.636;10.152;2022-09-02T07:36:07;19.30;59.60
30304;DHT22;17112;48.636;10.152;2022-09-02T07:38:35;19.40;59.70
30304;DHT22;17112;48.636;10.152;2022-09-02T07:41:01;19.50;58.90
30304;DHT22;17112;48.636;10.152;2022-09-02T07:43:28;19.60;58.80
30304;DHT22;17112;48.636;10.152;2022-09-02T07:45:55;19.60;58.60
30304;DHT22;17112;48.636;10.152;2022-09-02T07:48:24;19.70;58.40
30304;DHT22;17112;48.636;10.152;2022-09-02T07:50:50;19.80;58.10
30304;DHT22;17112;48.636;10.152;2022-09-02T07:53:17;19.80;57.90
30304;DHT22;17112;48.636;10.152;2022-09-02T07:55:44;19.90;57.80
30304;DHT22;17112;48.636;10.152;2022-09-02T07:58:10;20.00;57.80
30304;DHT22;17112;48.636;10.152;2022-09-02T08:00:37;20.10;57.60
30304;DHT22;17112;48.636;10.152;2022-09-02T08:03:03;20.20;57.30
30304;DHT22;17112;48.636;10.152;2022-09-02T08:05:31;20.30;57.20
30304;DHT22;17112;48.636;10.152;2022-09-02T08:07:58;20.30;56.90
30304;DHT22;17112;48.636;10.152;2022-09-02T08:10:25;20.40;56.80
30304;DHT22;17112;48.636;10.152;2022-09-02T08:12:55;20.50;56.80
30304;DHT22;17112;48.636;10.152;2022-09-02T08:15:22;20.60;56.40
30304;DHT22;17112;48.636;10.152;2022-09-02T08:17:49;20.70;56.40
30304;DHT22;17112;48.636;10.152;2022-09-02T08:20:15;20.80;56.00
30304;DHT22;17112;48.636;10.152;2022-09-02T08:22:42;20.80;55.80
30304;DHT22;17112;48.636;10.152;2022-09-02T08:25:09;20.90;55.50
30304;DHT22;17112;48.636;10.152;2022-09-02T08:27:36;21.00;55.60
30304;DHT22;17112;48.636;10.152;2022-09-02T08:30:03;21.10;55.70
30304;DHT22;17112;48.636;10.152;2022-09-02T08:32:29;21.20;55.30
30304;DHT22;17112;48.636;10.152;2022-09-02T08:34:58;21.30;55.10
30304;DHT22;17112;48.636;10.152;2022-09-02T08:37:27;21.40;55.00
30304;DHT22;17112;48.636;10.152;2022-09-02T08:39:54;21.50;54.70
30304;DHT22;17112;48.636;10.152;2022-09-02T08:42:29;21.60;53.60
30304;DHT22;17112;48.636;10.152;2022-09-02T08:45:20;21.60;53.50
30304;DHT22;17112;48.636;10.152;2022-09-02T08:47:54;21.70;52.60
30304;DHT22;17112;48.636;10.152;2022-09-02T08:50:23;21.80;53.20
30304;DHT22;17112;48.636;10.152;2022-09-02T08:55:53;21.90;53.30
30304;DHT22;17112;48.636;10.152;2022-09-02T08:58:24;22.00;52.90
30304;DHT22;17112;48.636;10.152;2022-09-02T09:04:23;22.20;52.10
30304;DHT22;17112;48.636;10.152;2022-09-02T09:07:32;22.30;52.00
30304;DHT22;17112;48.636;10.152;2022-09-02T09:10:16;22.40;52.00
30304;DHT22;17112;48.636;10.152;2022-09-02T09:12:57;22.50;51.40
30304;DHT22;17112;48.636;10.152;2022-09-02T09:17:58;22.60;50.40
30304;DHT22;17112;48.636;10.152;2022-09-02T09:20:27;22.70;50.60
30304;DHT22;17112;48.636;10.152;2022-09-02T09:22:57;22.70;50.30
30304;DHT22;17112;48.636;10.152;2022-09-02T09:25:25;22.70;50.30
30304;DHT22;17112;48.636;10.152;2022-09-02T09:27:57;22.80;50.30
30304;DHT22;17112;48.636;10.152;2022-09-02T09:30:24;22.80;50.30
30304;DHT22;17112;48.636;10.152;2022-09-02T09:32:57;22.90;50.40
30304;DHT22;17112;48.636;10.152;2022-09-02T09:35:26;23.30;50.00
30304;DHT22;17112;48.636;10.152;2022-09-02T09:37:55;23.00;49.80
30304;DHT22;17112;48.636;10.152;2022-09-02T09:40:31;23.10;49.40
30304;DHT22;17112;48.636;10.152;2022-09-02T09:45:39;23.20;48.80
30304;DHT22;17112;48.636;10.152;2022-09-02T09:48:24;23.40;48.20
30304;DHT22;17112;48.636;10.152;2022-09-02T09:53:25;23.60;48.20
30304;DHT22;17112;48.636;10.152;2022-09-02T09:56:00;23.60;47.70
30304;DHT22;17112;48.636;10.152;2022-09-02T09:58:33;23.70;48.00
30304;DHT22;17112;48.636;10.152;2022-09-02T10:01:11;23.80;47.30
30304;DHT22;17112;48.636;10.152;2022-09-02T10:03:41;23.80;46.00
30304;DHT22;17112;48.636;10.152;2022-09-02T10:08:58;24.00;46.10
30304;DHT22;17112;48.636;10.152;2022-09-02T10:11:27;24.00;45.80
30304;DHT22;17112;48.636;10.152;2022-09-02T10:14:07;24.20;46.10
30304;DHT22;17112;48.636;10.152;2022-09-02T10:16:52;24.30;44.90
30304;DHT22;17112;48.636;10.152;2022-09-02T10:19:28;24.30;44.80
30304;DHT22;17112;48.636;10.152;2022-09-02T10:25:14;24.40;44.10
30304;DHT22;17112;48.636;10.152;2022-09-02T10:27:48;24.50;42.70
30304;DHT22;17112;48.636;10.152;2022-09-02T10:30:22;24.50;45.10
30304;DHT22;17112;48.636;10.152;2022-09-02T10:33:22;24.50;43.10
30304;DHT22;17112;48.636;10.152;2022-09-02T10:38:48;24.50;43.20
30304;DHT22;17112;48.636;10.152;2022-09-02T10:41:42;24.60;44.20
30304;DHT22;17112;48.636;10.152;2022-09-02T10:44:59;24.70;43.50
30304;DHT22;17112;48.636;10.152;2022-09-02T10:47:38;24.70;43.10
30304;DHT22;17112;48.636;10.152;2022-09-02T10:53:20;24.90;43.70
30304;DHT22;17112;48.636;10.152;2022-09-02T11:00:54;25.20;42.50
30304;DHT22;17112;48.636;10.152;2022-09-02T11:03:31;25.20;43.20
30304;DHT22;17112;48.636;10.152;2022-09-02T11:06:18;25.30;42.30
30304;DHT22;17112;48.636;10.152;2022-09-02T11:08:52;25.30;42.50
30304;DHT22;17112;48.636;10.152;2022-09-02T11:11:24;25.40;42.50
30304;DHT22;17112;48.636;10.152;2022-09-02T11:16:32;25.50;42.30
30304;DHT22;17112;48.636;10.152;2022-09-02T11:19:26;25.60;42.40
30304;DHT22;17112;48.636;10.152;2022-09-02T11:22:22;25.70;42.90
30304;DHT22;17112;48.636;10.152;2022-09-02T11:30:57;25.80;41.80
30304;DHT22;17112;48.636;10.152;2022-09-02T11:33:29;25.90;42.10
30304;DHT22;17112;48.636;10.152;2022-09-02T11:35:59;26.00;40.70
30304;DHT22;17112;48.636;10.152;2022-09-02T11:38:39;25.90;39.20
30304;DHT22;17112;48.636;10.152;2022-09-02T11:47:30;26.00;39.70
30304;DHT22;17112;48.636;10.152;2022-09-02T11:50:33;26.00;39.40
30304;DHT22;17112;48.636;10.152;2022-09-02T11:53:19;26.10;37.40
30304;DHT22;17112;48.636;10.152;2022-09-02T11:56:34;26.20;40.10
30304;DHT22;17112;48.636;10.152;2022-09-02T11:58:43;26.30;39.60
30304;DHT22;17112;48.636;10.152;2022-09-02T12:04:34;26.40;40.00
30304;DHT22;17112;48.636;10.152;2022-09-02T12:09:52;26.50;39.60
30304;DHT22;17112;48.636;10.152;2022-09-02T12:20:04;26.80;39.10
30304;DHT22;17112;48.636;10.152;2022-09-02T12:22:33;26.90;39.20
30304;DHT22;17112;48.636;10.152;2022-09-02T12:25:48;27.00;38.90
30304;DHT22;17112;48.636;10.152;2022-09-02T12:27:49;27.10;38.50
30304;DHT22;17112;48.636;10.152;2022-09-02T12:33:31;27.20;35.20
30304;DHT22;17112;48.636;10.152;2022-09-02T12:35:58;27.20;36.40
30304;DHT22;17112;48.636;10.152;2022-09-02T12:38:27;27.20;37.30
30304;DHT22;17112;48.636;10.152;2022-09-02T12:46:15;27.40;38.20
30304;DHT22;17112;48.636;10.152;2022-09-02T12:48:50;27.50;37.30
30304;DHT22;17112;48.636;10.152;2022-09-02T12:54:18;27.60;34.60
30304;DHT22;17112;48.636;10.152;2022-09-02T12:56:47;27.70;37.10
30304;DHT22;17112;48.636;10.152;2022-09-02T12:59:28;27.80;36.90
30304;DHT22;17112;48.636;10.152;2022-09-02T13:12:51;28.10;36.40
30304;DHT22;17112;48.636;10.152;2022-09-02T13:18:49;28.10;35.60
30304;DHT22;17112;48.636;10.152;2022-09-02T13:25:01;28.10;32.10
30304;DHT22;17112;48.636;10.152;2022-09-02T13:27:43;28.00;35.10
30304;DHT22;17112;48.636;10.152;2022-09-02T13:33:06;28.10;35.00
30304;DHT22;17112;48.636;10.152;2022-09-02T13:35:36;28.30;34.60
30304;DHT22;17112;48.636;10.152;2022-09-02T13:38:02;28.30;34.70
30304;DHT22;17112;48.636;10.152;2022-09-02T13:40:33;28.40;33.40
30304;DHT22;17112;48.636;10.152;2022-09-02T13:45:40;28.50;33.80
30304;DHT22;17112;48.636;10.152;2022-09-02T13:48:14;28.60;34.00
30304;DHT22;17112;48.636;10.152;2022-09-02T13:50:43;28.70;34.00
30304;DHT22;17112;48.636;10.152;2022-09-02T13:53:13;28.70;33.90
30304;DHT22;17112;48.636;10.152;2022-09-02T13:55:48;28.80;33.10
30304;DHT22;17112;48.636;10.152;2022-09-02T14:00:46;29.00;32.80
30304;DHT22;17112;48.636;10.152;2022-09-02T14:03:16;29.10;33.40
30304;DHT22;17112;48.636;10.152;2022-09-02T14:05:46;29.30;32.90
30304;DHT22;17112;48.636;10.152;2022-09-02T14:08:21;29.30;32.30
30304;DHT22;17112;48.636;10.152;2022-09-02T14:10:48;29.40;32.10
30304;DHT22;17112;48.636;10.152;2022-09-02T14:13:17;29.50;32.40
30304;DHT22;17112;48.636;10.152;2022-09-02T14:15:43;29.50;32.20
30304;DHT22;17112;48.636;10.152;2022-09-02T14:18:10;29.60;31.90
30304;DHT22;17112;48.636;10.152;2022-09-02T14:20:38;29.60;32.50
30304;DHT22;17112;48.636;10.152;2022-09-02T14:23:05;29.70;32.60
30304;DHT22;17112;48.636;10.152;2022-09-02T14:25:36;29.70;32.00
30304;DHT22;17112;48.636;10.152;2022-09-02T14:28:09;29.90;32.20
30304;DHT22;17112;48.636;10.152;2022-09-02T14:30:37;30.00;31.50
30304;DHT22;17112;48.636;10.152;2022-09-02T14:33:23;30.10;31.40
30304;DHT22;17112;48.636;10.152;2022-09-02T14:35:58;30.20;29.70
30304;DHT22;17112;48.636;10.152;2022-09-02T14:38:25;30.20;29.90
30304;DHT22;17112;48.636;10.152;2022-09-02T14:41:08;30.20;30.80
30304;DHT22;17112;48.636;10.152;2022-09-02T14:43:56;30.20;30.10
30304;DHT22;17112;48.636;10.152;2022-09-02T14:46:27;30.20;29.60
30304;DHT22;17112;48.636;10.152;2022-09-02T14:49:03;30.20;30.40
30304;DHT22;17112;48.636;10.152;2022-09-02T14:51:46;30.30;30.40
30304;DHT22;17112;48.636;10.152;2022-09-02T14:54:48;30.20;29.40
30304;DHT22;17112;48.636;10.152;2022-09-02T14:59:47;30.30;30.10
30304;DHT22;17112;48.636;10.152;2022-09-02T15:02:31;30.40;30.20
30304;DHT22;17112;48.636;10.152;2022-09-02T15:04:59;30.50;30.00
30304;DHT22;17112;48.636;10.152;2022-09-02T15:07:26;30.50;30.20
30304;DHT22;17112;48.636;10.152;2022-09-02T15:09:52;30.50;30.00
30304;DHT22;17112;48.636;10.152;2022-09-02T15:12:19;30.60;30.10
30304;DHT22;17112;48.636;10.152;2022-09-02T15:14:50;30.70;29.60
30304;DHT22;17112;48.636;10.152;2022-09-02T15:17:16;30.80;29.80
30304;DHT22;17112;48.636;10.152;2022-09-02T15:19:41;30.90;29.80
30304;DHT22;17112;48.636;10.152;2022-09-02T15:22:07;30.90;29.80
30304;DHT22;17112;48.636;10.152;2022-09-02T15:24:32;30.90;29.50
30304;DHT22;17112;48.636;10.152;2022-09-02T15:26:58;31.00;29.10
30304;DHT22;17112;48.636;10.152;2022-09-02T15:29:24;31.00;29.40
30304;DHT22;17112;48.636;10.152;2022-09-02T15:31:51;31.00;29.20
30304;DHT22;17112;48.636;10.152;2022-09-02T15:34:16;31.10;29.60
30304;DHT22;17112;48.636;10.152;2022-09-02T15:36:43;31.10;29.50
30304;DHT22;17112;48.636;10.152;2022-09-02T15:39:08;31.20;29.20
30304;DHT22;17112;48.636;10.152;2022-09-02T15:41:34;31.30;29.10
30304;DHT22;17112;48.636;10.152;2022-09-02T15:44:01;31.40;29.10
30304;DHT22;17112;48.636;10.152;2022-09-02T15:46:29;31.50;28.80
30304;DHT22;17112;48.636;10.152;2022-09-02T15:48:59;31.70;29.10
30304;DHT22;17112;48.636;10.152;2022-09-02T15:51:24;31.80;28.80
30304;DHT22;17112;48.636;10.152;2022-09-02T15:53:58;31.90;28.80
30304;DHT22;17112;48.636;10.152;2022-09-02T15:56:26;32.00;28.50
30304;DHT22;17112;48.636;10.152;2022-09-02T15:59:00;32.20;28.00
30304;DHT22;17112;48.636;10.152;2022-09-02T16:01:28;32.20;27.70
30304;DHT22;17112;48.636;10.152;2022-09-02T16:03:55;32.30;27.90
30304;DHT22;17112;48.636;10.152;2022-09-02T16:06:22;32.30;27.30
30304;DHT22;17112;48.636;10.152;2022-09-02T16:08:48;32.20;26.60
30304;DHT22;17112;48.636;10.152;2022-09-02T16:11:14;32.10;27.30
30304;DHT22;17112;48.636;10.152;2022-09-02T16:13:40;31.90;26.50
30304;DHT22;17112;48.636;10.152;2022-09-02T16:16:08;31.70;27.40
30304;DHT22;17112;48.636;10.152;2022-09-02T16:18:35;31.60;27.70
30304;DHT22;17112;48.636;10.152;2022-09-02T16:21:01;31.60;28.00
30304;DHT22;17112;48.636;10.152;2022-09-02T16:23:28;31.50;26.50
30304;DHT22;17112;48.636;10.152;2022-09-02T16:28:37;31.20;27.00
30304;DHT22;17112;48.636;10.152;2022-09-02T16:31:04;31.10;27.10
30304;DHT22;17112;48.636;10.152;2022-09-02T16:33:30;30.80;27.40
30304;DHT22;17112;48.636;10.152;2022-09-02T16:35:56;30.60;27.60
30304;DHT22;17112;48.636;10.152;2022-09-02T16:38:22;30.40;28.00
30304;DHT22;17112;48.636;10.152;2022-09-02T16:40:51;30.30;28.30
30304;DHT22;17112;48.636;10.152;2022-09-02T16:43:17;30.40;28.50
30304;DHT22;17112;48.636;10.152;2022-09-02T16:45:44;30.40;28.70
30304;DHT22;17112;48.636;10.152;2022-09-02T16:48:10;30.30;28.40
30304;DHT22;17112;48.636;10.152;2022-09-02T16:50:36;30.10;28.20
30304;DHT22;17112;48.636;10.152;2022-09-02T16:53:02;29.80;28.30
30304;DHT22;17112;48.636;10.152;2022-09-02T16:55:27;29.50;28.40
30304;DHT22;17112;48.636;10.152;2022-09-02T16:57:54;29.20;28.80
30304;DHT22;17112;48.636;10.152;2022-09-02T17:00:20;28.90;29.00
30304;DHT22;17112;48.636;10.152;2022-09-02T17:02:47;28.50;29.40
30304;DHT22;17112;48.636;10.152;2022-09-02T17:05:13;28.20;29.30
30304;DHT22;17112;48.636;10.152;2022-09-02T17:07:41;27.90;29.40
30304;DHT22;17112;48.636;10.152;2022-09-02T17:10:09;27.60;29.70
30304;DHT22;17112;48.636;10.152;2022-09-02T17:12:35;27.30;29.90